McHenry, IL (60050)

5:48 AM CDT on March 27, 2017 (GMT -0500)
Running brook farms | | Change Station

Elev 791 ft 42.37 °N, 88.26 °W | Updated 3 minutes ago

Overcast
Overcast
43.3 °F
Feels Like 43 °F
N
0.3
Wind Variable Wind from SW

Today
High -- | Low -- °F
--% Chance of Precip.
Yesterday
High -- | Low -- °F
Precip. -- in
Pressure 29.90 in
Visibility 6.0 miles
Clouds Scattered Clouds 700 ft
Overcast 1500 ft
Windchill 43 °F
Dew Point 42 °F
Humidity 95%
Rainfall 0.25 in
Snow Depth Not available.
6:43 AM 7:13 PM
Waning Crescent, 1% visible
METAR KUGN 270955Z AUTO 28003KT 6SM BR SCT007 OVC015 07/07 A2989 RMK AO2 SLP124 T00720067 $
Pressure 29.90 in
Visibility 6.0 miles
Clouds Scattered Clouds 700 ft
Overcast 1500 ft
Windchill 43 °F
Dew Point 42 °F
Humidity 95%
Rainfall 0.25 in
Snow Depth Not available.
6:43 AM 7:13 PM
Waning Crescent, 1% visible
METAR KUGN 270955Z AUTO 28003KT 6SM BR SCT007 OVC015 07/07 A2989 RMK AO2 SLP124 T00720067 $

Get Severe Weather Alerts

Thanks for signing up!

Be on the lookout for a verification email in your inbox.

You'll start receiving the daily forecast at 8 AM.

×

10-Day Weather Forecast

Almanac

Astronomy

Mar. 27, 2017 Rise Set
Actual Time
Civil Twilight
Nautical Twilight
Astronomical Twilight
Moon
Length of Visible Light
Length of Day
Tomorrow will be .
, % of the Moon is Illuminated

Today's Extremes

State Highs State Lows

Community

WunderPhotos

Upload Photos

1,962,540 photos uploaded!

WunderBlog® & News

Nearby

Air Quality

  Air Quality AQ Index Pollutant
Not available.

Snow Depth

Station Depth Elevation

Earthquake Activity

City Distance Mag. Time & Date
Minimum magnitude displayed is 2.5.

Earthquake Activity

City Distance Mag. Time & Date
Minimum magnitude displayed is 2.5.

Coastal Water Temperatures

Place Temperature

Stations

Nearby Weather Stations

Station Location Temp. Windchill Dew Point Humidity Wind Precip. Elev Updated Type
                   

Watches & Warnings

There are currently no watches in effect.